sensor_id;sensor_type;location;lat;lon;timestamp;P1;durP1;ratioP1;P2;durP2;ratioP2
32026;SDS011;18543;50.848;4.596;2023-10-19T00:00:35;1.65;;;1.55;;
32026;SDS011;18543;50.848;4.596;2023-10-19T00:03:05;1.65;;;1.50;;
32026;SDS011;18543;50.848;4.596;2023-10-19T00:05:35;1.98;;;1.58;;
32026;SDS011;18543;50.848;4.596;2023-10-19T00:08:03;1.60;;;1.40;;
32026;SDS011;18543;50.848;4.596;2023-10-19T00:10:52;2.30;;;1.42;;
32026;SDS011;18543;50.848;4.596;2023-10-19T00:13:31;1.65;;;1.50;;
32026;SDS011;18543;50.848;4.596;2023-10-19T00:15:58;1.30;;;1.20;;
32026;SDS011;18543;50.848;4.596;2023-10-19T00:18:26;1.50;;;1.40;;
32026;SDS011;18543;50.848;4.596;2023-10-19T00:20:54;1.88;;;1.50;;
32026;SDS011;18543;50.848;4.596;2023-10-19T00:23:40;1.67;;;1.48;;
32026;SDS011;18543;50.848;4.596;2023-10-19T00:26:07;1.40;;;1.30;;
32026;SDS011;18543;50.848;4.596;2023-10-19T00:28:35;1.50;;;1.40;;
32026;SDS011;18543;50.848;4.596;2023-10-19T00:31:05;1.50;;;1.40;;
32026;SDS011;18543;50.848;4.596;2023-10-19T00:33:35;1.40;;;1.30;;
32026;SDS011;18543;50.848;4.596;2023-10-19T00:36:09;2.00;;;1.50;;
32026;SDS011;18543;50.848;4.596;2023-10-19T00:38:40;1.77;;;1.60;;
32026;SDS011;18543;50.848;4.596;2023-10-19T00:41:26;1.42;;;1.33;;
32026;SDS011;18543;50.848;4.596;2023-10-19T00:43:57;1.33;;;1.23;;
32026;SDS011;18543;50.848;4.596;2023-10-19T00:46:38;1.77;;;1.40;;
32026;SDS011;18543;50.848;4.596;2023-10-19T00:49:09;1.50;;;1.40;;
32026;SDS011;18543;50.848;4.596;2023-10-19T00:51:40;1.65;;;1.40;;
32026;SDS011;18543;50.848;4.596;2023-10-19T00:54:21;1.80;;;1.50;;
32026;SDS011;18543;50.848;4.596;2023-10-19T00:56:58;1.40;;;1.30;;
32026;SDS011;18543;50.848;4.596;2023-10-19T00:59:30;1.73;;;1.42;;
32026;SDS011;18543;50.848;4.596;2023-10-19T01:02:01;1.40;;;1.27;;
32026;SDS011;18543;50.848;4.596;2023-10-19T01:04:44;1.90;;;1.45;;
32026;SDS011;18543;50.848;4.596;2023-10-19T01:07:17;1.40;;;1.30;;
32026;SDS011;18543;50.848;4.596;2023-10-19T01:09:49;1.85;;;1.38;;
32026;SDS011;18543;50.848;4.596;2023-10-19T01:12:19;1.50;;;1.40;;
32026;SDS011;18543;50.848;4.596;2023-10-19T01:17:50;1.60;;;1.50;;
32026;SDS011;18543;50.848;4.596;2023-10-19T01:20:20;1.42;;;1.33;;
32026;SDS011;18543;50.848;4.596;2023-10-19T01:28:24;1.33;;;1.25;;
32026;SDS011;18543;50.848;4.596;2023-10-19T01:30:55;1.52;;;1.42;;
32026;SDS011;18543;50.848;4.596;2023-10-19T01:33:22;1.40;;;1.30;;
32026;SDS011;18543;50.848;4.596;2023-10-19T01:35:50;1.58;;;1.48;;
32026;SDS011;18543;50.848;4.596;2023-10-19T01:38:36;1.50;;;1.40;;
32026;SDS011;18543;50.848;4.596;2023-10-19T01:41:05;1.40;;;1.30;;
32026;SDS011;18543;50.848;4.596;2023-10-19T01:43:40;1.40;;;1.30;;
32026;SDS011;18543;50.848;4.596;2023-10-19T01:46:07;2.22;;;1.50;;
32026;SDS011;18543;50.848;4.596;2023-10-19T01:48:39;1.52;;;1.42;;
32026;SDS011;18543;50.848;4.596;2023-10-19T01:51:10;2.10;;;1.30;;
32026;SDS011;18543;50.848;4.596;2023-10-19T01:53:41;1.50;;;1.40;;
32026;SDS011;18543;50.848;4.596;2023-10-19T01:56:11;2.13;;;1.48;;
32026;SDS011;18543;50.848;4.596;2023-10-19T01:58:42;1.30;;;1.20;;
32026;SDS011;18543;50.848;4.596;2023-10-19T02:03:40;1.48;;;1.38;;
32026;SDS011;18543;50.848;4.596;2023-10-19T02:06:11;1.42;;;1.33;;
32026;SDS011;18543;50.848;4.596;2023-10-19T02:09:11;1.40;;;1.30;;
32026;SDS011;18543;50.848;4.596;2023-10-19T02:11:46;1.48;;;1.38;;
32026;SDS011;18543;50.848;4.596;2023-10-19T02:14:17;1.40;;;1.30;;
32026;SDS011;18543;50.848;4.596;2023-10-19T02:16:48;1.40;;;1.30;;
32026;SDS011;18543;50.848;4.596;2023-10-19T02:19:20;1.40;;;1.30;;
32026;SDS011;18543;50.848;4.596;2023-10-19T02:21:52;1.38;;;1.27;;
32026;SDS011;18543;50.848;4.596;2023-10-19T02:24:20;1.50;;;1.40;;
32026;SDS011;18543;50.848;4.596;2023-10-19T02:26:48;1.85;;;1.50;;
32026;SDS011;18543;50.848;4.596;2023-10-19T02:29:18;1.30;;;1.20;;
32026;SDS011;18543;50.848;4.596;2023-10-19T02:31:48;2.08;;;1.23;;
32026;SDS011;18543;50.848;4.596;2023-10-19T02:34:16;1.52;;;1.40;;
32026;SDS011;18543;50.848;4.596;2023-10-19T02:36:44;1.27;;;1.20;;
32026;SDS011;18543;50.848;4.596;2023-10-19T02:39:11;1.45;;;1.27;;
32026;SDS011;18543;50.848;4.596;2023-10-19T02:41:41;1.88;;;1.40;;
32026;SDS011;18543;50.848;4.596;2023-10-19T02:46:43;1.40;;;1.30;;
32026;SDS011;18543;50.848;4.596;2023-10-19T02:51:39;1.40;;;1.30;;
32026;SDS011;18543;50.848;4.596;2023-10-19T02:54:07;1.30;;;1.20;;
32026;SDS011;18543;50.848;4.596;2023-10-19T02:56:44;1.40;;;1.30;;
32026;SDS011;18543;50.848;4.596;2023-10-19T02:59:17;1.42;;;1.30;;
32026;SDS011;18543;50.848;4.596;2023-10-19T03:01:49;1.40;;;1.30;;
32026;SDS011;18543;50.848;4.596;2023-10-19T03:04:35;1.43;;;1.33;;
32026;SDS011;18543;50.848;4.596;2023-10-19T03:07:03;1.30;;;1.20;;
32026;SDS011;18543;50.848;4.596;2023-10-19T03:09:31;1.38;;;1.27;;
32026;SDS011;18543;50.848;4.596;2023-10-19T03:12:02;2.03;;;1.30;;
32026;SDS011;18543;50.848;4.596;2023-10-19T03:14:40;1.30;;;1.20;;
32026;SDS011;18543;50.848;4.596;2023-10-19T03:17:15;1.55;;;1.33;;
32026;SDS011;18543;50.848;4.596;2023-10-19T03:22:10;1.52;;;1.20;;
32026;SDS011;18543;50.848;4.596;2023-10-19T03:24:38;2.55;;;1.35;;
32026;SDS011;18543;50.848;4.596;2023-10-19T03:27:12;1.50;;;1.40;;
32026;SDS011;18543;50.848;4.596;2023-10-19T03:29:45;1.38;;;1.27;;
32026;SDS011;18543;50.848;4.596;2023-10-19T03:32:14;1.33;;;1.20;;
32026;SDS011;18543;50.848;4.596;2023-10-19T03:37:14;1.25;;;1.15;;
32026;SDS011;18543;50.848;4.596;2023-10-19T03:39:42;1.48;;;1.38;;
32026;SDS011;18543;50.848;4.596;2023-10-19T03:42:12;1.30;;;1.20;;
32026;SDS011;18543;50.848;4.596;2023-10-19T03:44:40;1.27;;;1.17;;
32026;SDS011;18543;50.848;4.596;2023-10-19T03:47:07;1.77;;;1.45;;
32026;SDS011;18543;50.848;4.596;2023-10-19T03:49:38;1.30;;;1.20;;
32026;SDS011;18543;50.848;4.596;2023-10-19T03:52:06;1.30;;;1.20;;
32026;SDS011;18543;50.848;4.596;2023-10-19T03:54:37;1.50;;;1.40;;
32026;SDS011;18543;50.848;4.596;2023-10-19T03:57:11;1.30;;;1.20;;
32026;SDS011;18543;50.848;4.596;2023-10-19T03:59:38;1.33;;;1.23;;
32026;SDS011;18543;50.848;4.596;2023-10-19T04:02:08;1.13;;;1.10;;
32026;SDS011;18543;50.848;4.596;2023-10-19T04:04:37;1.40;;;1.30;;
32026;SDS011;18543;50.848;4.596;2023-10-19T04:07:06;1.30;;;1.15;;
32026;SDS011;18543;50.848;4.596;2023-10-19T04:09:52;2.00;;;1.02;;
32026;SDS011;18543;50.848;4.596;2023-10-19T04:12:26;1.45;;;1.23;;
32026;SDS011;18543;50.848;4.596;2023-10-19T04:14:58;1.30;;;1.20;;
32026;SDS011;18543;50.848;4.596;2023-10-19T04:17:35;1.40;;;1.30;;
32026;SDS011;18543;50.848;4.596;2023-10-19T04:20:03;1.30;;;1.20;;
32026;SDS011;18543;50.848;4.596;2023-10-19T04:22:48;1.40;;;1.30;;
32026;SDS011;18543;50.848;4.596;2023-10-19T04:25:17;1.60;;;1.30;;
32026;SDS011;18543;50.848;4.596;2023-10-19T04:27:52;1.20;;;1.10;;
32026;SDS011;18543;50.848;4.596;2023-10-19T04:30:20;1.38;;;1.20;;
32026;SDS011;18543;50.848;4.596;2023-10-19T04:32:53;1.30;;;1.20;;
32026;SDS011;18543;50.848;4.596;2023-10-19T04:35:24;1.30;;;1.20;;
32026;SDS011;18543;50.848;4.596;2023-10-19T04:37:58;1.85;;;1.40;;
32026;SDS011;18543;50.848;4.596;2023-10-19T04:40:27;1.33;;;1.20;;
32026;SDS011;18543;50.848;4.596;2023-10-19T04:42:55;1.30;;;1.20;;
32026;SDS011;18543;50.848;4.596;2023-10-19T04:45:22;1.33;;;1.23;;
32026;SDS011;18543;50.848;4.596;2023-10-19T04:47:50;1.30;;;1.20;;
32026;SDS011;18543;50.848;4.596;2023-10-19T04:50:19;1.30;;;1.20;;
32026;SDS011;18543;50.848;4.596;2023-10-19T04:52:49;1.20;;;1.10;;
32026;SDS011;18543;50.848;4.596;2023-10-19T04:55:16;1.30;;;1.20;;
32026;SDS011;18543;50.848;4.596;2023-10-19T04:57:44;1.77;;;1.30;;
32026;SDS011;18543;50.848;4.596;2023-10-19T05:00:12;1.20;;;1.10;;
32026;SDS011;18543;50.848;4.596;2023-10-19T05:02:41;1.33;;;1.23;;
32026;SDS011;18543;50.848;4.596;2023-10-19T05:05:09;1.20;;;1.10;;
32026;SDS011;18543;50.848;4.596;2023-10-19T05:07:37;1.25;;;1.15;;
32026;SDS011;18543;50.848;4.596;2023-10-19T05:10:04;1.20;;;1.00;;
32026;SDS011;18543;50.848;4.596;2023-10-19T05:12:35;1.23;;;1.00;;
32026;SDS011;18543;50.848;4.596;2023-10-19T05:15:02;1.00;;;1.00;;
32026;SDS011;18543;50.848;4.596;2023-10-19T05:17:32;1.88;;;1.30;;
32026;SDS011;18543;50.848;4.596;2023-10-19T05:19:59;1.25;;;1.10;;
32026;SDS011;18543;50.848;4.596;2023-10-19T05:22:27;1.20;;;1.10;;
32026;SDS011;18543;50.848;4.596;2023-10-19T05:24:57;1.33;;;1.10;;
32026;SDS011;18543;50.848;4.596;2023-10-19T05:27:24;1.30;;;1.20;;
32026;SDS011;18543;50.848;4.596;2023-10-19T05:29:52;4.20;;;1.20;;
32026;SDS011;18543;50.848;4.596;2023-10-19T05:32:19;1.20;;;1.10;;
32026;SDS011;18543;50.848;4.596;2023-10-19T05:34:47;1.45;;;1.30;;
32026;SDS011;18543;50.848;4.596;2023-10-19T05:37:14;1.77;;;1.20;;
32026;SDS011;18543;50.848;4.596;2023-10-19T05:39:44;1.30;;;1.20;;
32026;SDS011;18543;50.848;4.596;2023-10-19T05:42:13;1.33;;;1.23;;
32026;SDS011;18543;50.848;4.596;2023-10-19T05:44:41;1.00;;;1.00;;
32026;SDS011;18543;50.848;4.596;2023-10-19T05:47:08;1.27;;;1.17;;
32026;SDS011;18543;50.848;4.596;2023-10-19T05:49:35;1.47;;;1.20;;
32026;SDS011;18543;50.848;4.596;2023-10-19T05:54:30;1.10;;;1.00;;
32026;SDS011;18543;50.848;4.596;2023-10-19T05:56:58;1.35;;;1.10;;
32026;SDS011;18543;50.848;4.596;2023-10-19T05:59:25;1.20;;;1.10;;
32026;SDS011;18543;50.848;4.596;2023-10-19T06:01:56;1.13;;;1.02;;
32026;SDS011;18543;50.848;4.596;2023-10-19T06:04:24;1.03;;;1.00;;
32026;SDS011;18543;50.848;4.596;2023-10-19T06:06:51;1.20;;;1.10;;
32026;SDS011;18543;50.848;4.596;2023-10-19T06:09:18;1.20;;;1.10;;
32026;SDS011;18543;50.848;4.596;2023-10-19T06:11:46;1.33;;;1.10;;
32026;SDS011;18543;50.848;4.596;2023-10-19T06:14:13;1.20;;;1.10;;
32026;SDS011;18543;50.848;4.596;2023-10-19T06:19:09;1.30;;;1.20;;
32026;SDS011;18543;50.848;4.596;2023-10-19T06:21:36;1.08;;;1.00;;
32026;SDS011;18543;50.848;4.596;2023-10-19T06:24:06;1.20;;;1.10;;
32026;SDS011;18543;50.848;4.596;2023-10-19T06:26:34;1.27;;;1.17;;
32026;SDS011;18543;50.848;4.596;2023-10-19T06:29:02;0.90;;;0.90;;
32026;SDS011;18543;50.848;4.596;2023-10-19T06:31:30;0.90;;;0.90;;
32026;SDS011;18543;50.848;4.596;2023-10-19T06:33:59;1.10;;;1.10;;
32026;SDS011;18543;50.848;4.596;2023-10-19T06:36:28;1.38;;;1.27;;
32026;SDS011;18543;50.848;4.596;2023-10-19T06:38:55;1.65;;;1.20;;
32026;SDS011;18543;50.848;4.596;2023-10-19T06:41:23;1.10;;;1.00;;
32026;SDS011;18543;50.848;4.596;2023-10-19T06:43:50;1.10;;;1.00;;
32026;SDS011;18543;50.848;4.596;2023-10-19T06:46:18;1.17;;;1.10;;
32026;SDS011;18543;50.848;4.596;2023-10-19T06:48:45;0.97;;;0.90;;
32026;SDS011;18543;50.848;4.596;2023-10-19T06:51:13;0.93;;;0.90;;
32026;SDS011;18543;50.848;4.596;2023-10-19T06:53:43;1.02;;;0.80;;
32026;SDS011;18543;50.848;4.596;2023-10-19T06:56:10;6.32;;;1.10;;
32026;SDS011;18543;50.848;4.596;2023-10-19T06:58:37;5.37;;;1.20;;
32026;SDS011;18543;50.848;4.596;2023-10-19T07:01:08;2.53;;;0.80;;
32026;SDS011;18543;50.848;4.596;2023-10-19T07:03:35;2.80;;;1.20;;
32026;SDS011;18543;50.848;4.596;2023-10-19T07:06:03;1.35;;;1.05;;
32026;SDS011;18543;50.848;4.596;2023-10-19T07:08:42;2.58;;;0.90;;
32026;SDS011;18543;50.848;4.596;2023-10-19T07:11:09;3.53;;;1.10;;
32026;SDS011;18543;50.848;4.596;2023-10-19T07:13:36;1.50;;;0.90;;
32026;SDS011;18543;50.848;4.596;2023-10-19T07:16:06;1.42;;;0.80;;
32026;SDS011;18543;50.848;4.596;2023-10-19T07:18:35;4.22;;;1.02;;
32026;SDS011;18543;50.848;4.596;2023-10-19T07:21:03;5.43;;;1.20;;
32026;SDS011;18543;50.848;4.596;2023-10-19T07:25:58;5.17;;;1.30;;
32026;SDS011;18543;50.848;4.596;2023-10-19T07:28:28;7.20;;;1.40;;
32026;SDS011;18543;50.848;4.596;2023-10-19T07:30:56;5.40;;;1.08;;
32026;SDS011;18543;50.848;4.596;2023-10-19T07:33:26;3.47;;;1.10;;
32026;SDS011;18543;50.848;4.596;2023-10-19T07:38:22;3.33;;;1.08;;
32026;SDS011;18543;50.848;4.596;2023-10-19T07:43:20;4.28;;;1.42;;
32026;SDS011;18543;50.848;4.596;2023-10-19T07:48:16;5.63;;;1.30;;
32026;SDS011;18543;50.848;4.596;2023-10-19T07:50:43;4.95;;;1.20;;
32026;SDS011;18543;50.848;4.596;2023-10-19T07:53:11;2.67;;;1.13;;
32026;SDS011;18543;50.848;4.596;2023-10-19T07:55:38;5.82;;;1.30;;
32026;SDS011;18543;50.848;4.596;2023-10-19T07:58:06;5.07;;;1.20;;
32026;SDS011;18543;50.848;4.596;2023-10-19T08:00:33;4.60;;;1.45;;
32026;SDS011;18543;50.848;4.596;2023-10-19T08:03:01;5.05;;;1.35;;
32026;SDS011;18543;50.848;4.596;2023-10-19T08:05:29;9.23;;;1.58;;
32026;SDS011;18543;50.848;4.596;2023-10-19T08:07:57;5.68;;;1.52;;
32026;SDS011;18543;50.848;4.596;2023-10-19T08:10:26;2.58;;;1.10;;
32026;SDS011;18543;50.848;4.596;2023-10-19T08:12:54;4.75;;;1.30;;
32026;SDS011;18543;50.848;4.596;2023-10-19T08:15:24;5.22;;;1.40;;
32026;SDS011;18543;50.848;4.596;2023-10-19T08:17:52;5.90;;;1.45;;
32026;SDS011;18543;50.848;4.596;2023-10-19T08:20:22;7.65;;;1.42;;
32026;SDS011;18543;50.848;4.596;2023-10-19T08:22:52;10.48;;;1.45;;
32026;SDS011;18543;50.848;4.596;2023-10-19T08:27:47;7.10;;;1.30;;
32026;SDS011;18543;50.848;4.596;2023-10-19T08:30:20;11.27;;;1.65;;
32026;SDS011;18543;50.848;4.596;2023-10-19T08:32:53;5.90;;;1.70;;
32026;SDS011;18543;50.848;4.596;2023-10-19T08:35:20;6.05;;;1.40;;
32026;SDS011;18543;50.848;4.596;2023-10-19T08:37:53;8.88;;;1.63;;
32026;SDS011;18543;50.848;4.596;2023-10-19T08:40:20;2.92;;;1.25;;
32026;SDS011;18543;50.848;4.596;2023-10-19T08:42:49;5.40;;;1.27;;
32026;SDS011;18543;50.848;4.596;2023-10-19T08:45:17;6.30;;;1.27;;
32026;SDS011;18543;50.848;4.596;2023-10-19T08:50:25;3.45;;;1.27;;
32026;SDS011;18543;50.848;4.596;2023-10-19T08:52:53;12.77;;;1.48;;
32026;SDS011;18543;50.848;4.596;2023-10-19T08:55:20;4.95;;;1.85;;
32026;SDS011;18543;50.848;4.596;2023-10-19T08:58:06;4.35;;;1.55;;
32026;SDS011;18543;50.848;4.596;2023-10-19T09:00:47;3.88;;;1.17;;
32026;SDS011;18543;50.848;4.596;2023-10-19T09:03:16;3.50;;;1.35;;
32026;SDS011;18543;50.848;4.596;2023-10-19T09:05:44;4.45;;;1.40;;
32026;SDS011;18543;50.848;4.596;2023-10-19T09:08:14;4.60;;;1.00;;
32026;SDS011;18543;50.848;4.596;2023-10-19T09:10:42;2.90;;;1.30;;
32026;SDS011;18543;50.848;4.596;2023-10-19T09:13:12;4.93;;;1.48;;
32026;SDS011;18543;50.848;4.596;2023-10-19T09:15:42;2.22;;;1.20;;
32026;SDS011;18543;50.848;4.596;2023-10-19T09:18:13;3.97;;;1.23;;
32026;SDS011;18543;50.848;4.596;2023-10-19T09:20:41;5.75;;;1.40;;
32026;SDS011;18543;50.848;4.596;2023-10-19T09:23:14;4.32;;;1.38;;
32026;SDS011;18543;50.848;4.596;2023-10-19T09:25:41;7.57;;;1.33;;
32026;SDS011;18543;50.848;4.596;2023-10-19T09:28:09;7.80;;;1.52;;
32026;SDS011;18543;50.848;4.596;2023-10-19T09:30:40;5.63;;;1.80;;
32026;SDS011;18543;50.848;4.596;2023-10-19T09:33:07;4.20;;;1.95;;
32026;SDS011;18543;50.848;4.596;2023-10-19T09:35:35;21.23;;;6.68;;
32026;SDS011;18543;50.848;4.596;2023-10-19T09:38:04;19.65;;;5.78;;
32026;SDS011;18543;50.848;4.596;2023-10-19T09:40:32;21.40;;;6.78;;
32026;SDS011;18543;50.848;4.596;2023-10-19T09:43:04;21.02;;;6.72;;
32026;SDS011;18543;50.848;4.596;2023-10-19T09:45:36;19.15;;;6.90;;
32026;SDS011;18543;50.848;4.596;2023-10-19T09:48:08;26.58;;;7.50;;
32026;SDS011;18543;50.848;4.596;2023-10-19T09:50:49;20.65;;;6.90;;
32026;SDS011;18543;50.848;4.596;2023-10-19T09:53:17;22.08;;;7.18;;
32026;SDS011;18543;50.848;4.596;2023-10-19T09:55:45;18.30;;;6.72;;
32026;SDS011;18543;50.848;4.596;2023-10-19T10:00:47;21.77;;;6.83;;
32026;SDS011;18543;50.848;4.596;2023-10-19T10:06:04;20.63;;;6.97;;
32026;SDS011;18543;50.848;4.596;2023-10-19T10:08:31;20.07;;;6.30;;
32026;SDS011;18543;50.848;4.596;2023-10-19T10:10:59;18.05;;;6.40;;
32026;SDS011;18543;50.848;4.596;2023-10-19T10:13:40;19.85;;;6.45;;
32026;SDS011;18543;50.848;4.596;2023-10-19T10:18:37;21.77;;;6.53;;
32026;SDS011;18543;50.848;4.596;2023-10-19T10:23:55;19.52;;;6.40;;
32026;SDS011;18543;50.848;4.596;2023-10-19T10:26:23;18.63;;;5.95;;
32026;SDS011;18543;50.848;4.596;2023-10-19T10:29:07;17.77;;;6.32;;
32026;SDS011;18543;50.848;4.596;2023-10-19T10:31:42;19.50;;;6.00;;
32026;SDS011;18543;50.848;4.596;2023-10-19T10:39:23;19.33;;;6.38;;
32026;SDS011;18543;50.848;4.596;2023-10-19T10:41:58;15.07;;;5.93;;
32026;SDS011;18543;50.848;4.596;2023-10-19T10:44:36;17.50;;;5.72;;
32026;SDS011;18543;50.848;4.596;2023-10-19T10:47:07;18.08;;;6.03;;
32026;SDS011;18543;50.848;4.596;2023-10-19T10:49:46;17.45;;;5.60;;
32026;SDS011;18543;50.848;4.596;2023-10-19T10:55:12;16.50;;;5.50;;
32026;SDS011;18543;50.848;4.596;2023-10-19T10:57:42;16.98;;;6.00;;
32026;SDS011;18543;50.848;4.596;2023-10-19T11:00:11;16.65;;;5.57;;
32026;SDS011;18543;50.848;4.596;2023-10-19T11:02:43;18.02;;;5.25;;
32026;SDS011;18543;50.848;4.596;2023-10-19T11:05:15;16.52;;;6.15;;
32026;SDS011;18543;50.848;4.596;2023-10-19T11:10:29;18.17;;;5.47;;
32026;SDS011;18543;50.848;4.596;2023-10-19T11:13:00;15.98;;;5.43;;
32026;SDS011;18543;50.848;4.596;2023-10-19T11:15:28;14.88;;;5.60;;
32026;SDS011;18543;50.848;4.596;2023-10-19T11:17:55;17.47;;;5.40;;
32026;SDS011;18543;50.848;4.596;2023-10-19T11:20:24;13.18;;;5.60;;
32026;SDS011;18543;50.848;4.596;2023-10-19T11:22:53;17.35;;;5.50;;
32026;SDS011;18543;50.848;4.596;2023-10-19T11:25:27;15.25;;;5.75;;
32026;SDS011;18543;50.848;4.596;2023-10-19T11:27:55;13.10;;;5.57;;
32026;SDS011;18543;50.848;4.596;2023-10-19T11:30:26;15.75;;;5.18;;
32026;SDS011;18543;50.848;4.596;2023-10-19T11:32:54;17.48;;;5.97;;
32026;SDS011;18543;50.848;4.596;2023-10-19T11:35:26;17.40;;;5.35;;
32026;SDS011;18543;50.848;4.596;2023-10-19T11:37:59;17.65;;;5.72;;
32026;SDS011;18543;50.848;4.596;2023-10-19T11:40:29;12.80;;;4.95;;
32026;SDS011;18543;50.848;4.596;2023-10-19T11:45:26;14.90;;;5.50;;
32026;SDS011;18543;50.848;4.596;2023-10-19T11:47:55;15.63;;;4.68;;
32026;SDS011;18543;50.848;4.596;2023-10-19T11:50:23;10.90;;;4.32;;
32026;SDS011;18543;50.848;4.596;2023-10-19T11:52:51;10.57;;;4.88;;
32026;SDS011;18543;50.848;4.596;2023-10-19T11:55:22;13.52;;;4.72;;
32026;SDS011;18543;50.848;4.596;2023-10-19T11:57:49;11.70;;;4.30;;
32026;SDS011;18543;50.848;4.596;2023-10-19T12:00:17;13.65;;;4.80;;
32026;SDS011;18543;50.848;4.596;2023-10-19T12:03:00;9.75;;;4.00;;
32026;SDS011;18543;50.848;4.596;2023-10-19T12:05:27;12.02;;;3.97;;
32026;SDS011;18543;50.848;4.596;2023-10-19T12:07:55;10.30;;;4.38;;
32026;SDS011;18543;50.848;4.596;2023-10-19T12:10:23;14.45;;;4.07;;
32026;SDS011;18543;50.848;4.596;2023-10-19T12:13:06;12.63;;;4.20;;
32026;SDS011;18543;50.848;4.596;2023-10-19T12:15:36;13.60;;;4.13;;
32026;SDS011;18543;50.848;4.596;2023-10-19T12:18:03;9.27;;;4.15;;
32026;SDS011;18543;50.848;4.596;2023-10-19T12:20:31;10.40;;;4.00;;
32026;SDS011;18543;50.848;4.596;2023-10-19T12:23:04;11.18;;;3.83;;
32026;SDS011;18543;50.848;4.596;2023-10-19T12:25:32;10.93;;;3.90;;
32026;SDS011;18543;50.848;4.596;2023-10-19T12:28:19;9.40;;;4.00;;
32026;SDS011;18543;50.848;4.596;2023-10-19T12:30:46;9.52;;;3.92;;
32026;SDS011;18543;50.848;4.596;2023-10-19T12:33:14;11.15;;;4.05;;
32026;SDS011;18543;50.848;4.596;2023-10-19T12:35:42;8.30;;;3.70;;
32026;SDS011;18543;50.848;4.596;2023-10-19T12:38:20;11.55;;;4.10;;
32026;SDS011;18543;50.848;4.596;2023-10-19T12:40:48;9.90;;;3.72;;
32026;SDS011;18543;50.848;4.596;2023-10-19T12:43:18;11.70;;;4.10;;
32026;SDS011;18543;50.848;4.596;2023-10-19T12:45:48;10.13;;;4.10;;
32026;SDS011;18543;50.848;4.596;2023-10-19T12:48:24;10.50;;;3.90;;
32026;SDS011;18543;50.848;4.596;2023-10-19T12:51:00;9.13;;;3.88;;
32026;SDS011;18543;50.848;4.596;2023-10-19T12:55:55;11.50;;;4.15;;
32026;SDS011;18543;50.848;4.596;2023-10-19T12:58:22;9.23;;;3.28;;
32026;SDS011;18543;50.848;4.596;2023-10-19T13:00:50;10.23;;;4.15;;
32026;SDS011;18543;50.848;4.596;2023-10-19T13:05:45;9.60;;;3.78;;
32026;SDS011;18543;50.848;4.596;2023-10-19T13:08:13;8.98;;;3.22;;
32026;SDS011;18543;50.848;4.596;2023-10-19T13:10:45;9.70;;;3.75;;
32026;SDS011;18543;50.848;4.596;2023-10-19T13:13:13;11.35;;;3.63;;
32026;SDS011;18543;50.848;4.596;2023-10-19T13:15:46;10.80;;;3.92;;
32026;SDS011;18543;50.848;4.596;2023-10-19T13:18:14;8.02;;;3.47;;
32026;SDS011;18543;50.848;4.596;2023-10-19T13:20:51;8.32;;;3.50;;
32026;SDS011;18543;50.848;4.596;2023-10-19T13:23:20;10.05;;;3.85;;
32026;SDS011;18543;50.848;4.596;2023-10-19T13:25:51;7.05;;;3.33;;
32026;SDS011;18543;50.848;4.596;2023-10-19T13:28:27;8.43;;;3.33;;
32026;SDS011;18543;50.848;4.596;2023-10-19T13:30:55;8.93;;;3.53;;
32026;SDS011;18543;50.848;4.596;2023-10-19T13:33:22;10.10;;;2.90;;
32026;SDS011;18543;50.848;4.596;2023-10-19T13:35:52;6.63;;;2.40;;
32026;SDS011;18543;50.848;4.596;2023-10-19T13:38:20;8.67;;;2.20;;
32026;SDS011;18543;50.848;4.596;2023-10-19T13:40:47;5.47;;;2.10;;
32026;SDS011;18543;50.848;4.596;2023-10-19T13:43:16;5.88;;;1.90;;
32026;SDS011;18543;50.848;4.596;2023-10-19T13:45:44;5.20;;;2.17;;
32026;SDS011;18543;50.848;4.596;2023-10-19T13:48:14;3.72;;;1.60;;
32026;SDS011;18543;50.848;4.596;2023-10-19T13:50:42;4.10;;;2.10;;
32026;SDS011;18543;50.848;4.596;2023-10-19T13:53:10;6.75;;;1.80;;
32026;SDS011;18543;50.848;4.596;2023-10-19T13:55:37;4.47;;;1.83;;
32026;SDS011;18543;50.848;4.596;2023-10-19T13:58:05;5.95;;;1.75;;
32026;SDS011;18543;50.848;4.596;2023-10-19T14:00:35;4.22;;;1.70;;
32026;SDS011;18543;50.848;4.596;2023-10-19T14:03:05;5.22;;;1.55;;
32026;SDS011;18543;50.848;4.596;2023-10-19T14:05:36;4.70;;;1.35;;
32026;SDS011;18543;50.848;4.596;2023-10-19T14:08:05;4.20;;;1.27;;
32026;SDS011;18543;50.848;4.596;2023-10-19T14:10:35;3.03;;;1.40;;
32026;SDS011;18543;50.848;4.596;2023-10-19T14:13:09;5.28;;;1.42;;
32026;SDS011;18543;50.848;4.596;2023-10-19T14:15:38;2.47;;;1.33;;
32026;SDS011;18543;50.848;4.596;2023-10-19T14:20:33;4.53;;;1.25;;
32026;SDS011;18543;50.848;4.596;2023-10-19T14:23:01;6.03;;;1.48;;
32026;SDS011;18543;50.848;4.596;2023-10-19T14:25:31;1.88;;;1.17;;
32026;SDS011;18543;50.848;4.596;2023-10-19T14:27:58;2.42;;;1.10;;
32026;SDS011;18543;50.848;4.596;2023-10-19T14:30:26;2.55;;;0.90;;
32026;SDS011;18543;50.848;4.596;2023-10-19T14:32:54;4.15;;;1.10;;
32026;SDS011;18543;50.848;4.596;2023-10-19T14:37:50;2.88;;;1.30;;
32026;SDS011;18543;50.848;4.596;2023-10-19T14:40:21;2.95;;;1.15;;
32026;SDS011;18543;50.848;4.596;2023-10-19T14:42:51;2.58;;;1.10;;
32026;SDS011;18543;50.848;4.596;2023-10-19T14:45:24;4.10;;;1.40;;
32026;SDS011;18543;50.848;4.596;2023-10-19T14:48:03;2.07;;;1.20;;
32026;SDS011;18543;50.848;4.596;2023-10-19T14:50:30;4.78;;;1.48;;
32026;SDS011;18543;50.848;4.596;2023-10-19T14:52:58;2.72;;;1.30;;
32026;SDS011;18543;50.848;4.596;2023-10-19T14:55:25;3.15;;;1.30;;
32026;SDS011;18543;50.848;4.596;2023-10-19T14:57:53;2.53;;;1.27;;
32026;SDS011;18543;50.848;4.596;2023-10-19T15:00:22;2.53;;;1.27;;
32026;SDS011;18543;50.848;4.596;2023-10-19T15:03:08;2.53;;;1.20;;
32026;SDS011;18543;50.848;4.596;2023-10-19T15:05:36;3.00;;;1.33;;
32026;SDS011;18543;50.848;4.596;2023-10-19T15:08:04;5.20;;;1.27;;
32026;SDS011;18543;50.848;4.596;2023-10-19T15:10:34;3.72;;;1.40;;
32026;SDS011;18543;50.848;4.596;2023-10-19T15:13:01;4.82;;;1.30;;
32026;SDS011;18543;50.848;4.596;2023-10-19T15:15:29;4.07;;;1.13;;
32026;SDS011;18543;50.848;4.596;2023-10-19T15:17:56;2.67;;;1.50;;
32026;SDS011;18543;50.848;4.596;2023-10-19T15:20:25;2.35;;;1.17;;
32026;SDS011;18543;50.848;4.596;2023-10-19T15:22:52;3.20;;;1.38;;
32026;SDS011;18543;50.848;4.596;2023-10-19T15:25:20;2.70;;;1.40;;
32026;SDS011;18543;50.848;4.596;2023-10-19T15:27:53;2.88;;;1.25;;
32026;SDS011;18543;50.848;4.596;2023-10-19T15:30:20;2.25;;;1.38;;
32026;SDS011;18543;50.848;4.596;2023-10-19T15:32:49;3.20;;;1.30;;
32026;SDS011;18543;50.848;4.596;2023-10-19T15:35:17;3.30;;;1.60;;
32026;SDS011;18543;50.848;4.596;2023-10-19T15:37:49;2.58;;;1.30;;
32026;SDS011;18543;50.848;4.596;2023-10-19T15:40:20;2.25;;;1.20;;
32026;SDS011;18543;50.848;4.596;2023-10-19T15:42:48;1.40;;;1.08;;
32026;SDS011;18543;50.848;4.596;2023-10-19T15:45:15;2.63;;;1.27;;
32026;SDS011;18543;50.848;4.596;2023-10-19T15:47:46;2.17;;;1.17;;
32026;SDS011;18543;50.848;4.596;2023-10-19T15:50:14;1.95;;;1.27;;
32026;SDS011;18543;50.848;4.596;2023-10-19T15:52:43;3.03;;;1.40;;
32026;SDS011;18543;50.848;4.596;2023-10-19T15:55:13;2.85;;;1.30;;
32026;SDS011;18543;50.848;4.596;2023-10-19T15:57:41;1.52;;;1.10;;
32026;SDS011;18543;50.848;4.596;2023-10-19T16:00:09;2.67;;;1.33;;
32026;SDS011;18543;50.848;4.596;2023-10-19T16:02:42;2.10;;;1.50;;
32026;SDS011;18543;50.848;4.596;2023-10-19T16:05:12;2.55;;;1.30;;
32026;SDS011;18543;50.848;4.596;2023-10-19T16:07:42;2.45;;;1.20;;
32026;SDS011;18543;50.848;4.596;2023-10-19T16:10:09;3.35;;;1.30;;
32026;SDS011;18543;50.848;4.596;2023-10-19T16:12:39;4.10;;;1.58;;
32026;SDS011;18543;50.848;4.596;2023-10-19T16:15:07;3.45;;;1.73;;
32026;SDS011;18543;50.848;4.596;2023-10-19T16:17:35;2.78;;;1.10;;